Time;durP1;ratioP1;P1;durP2;ratioP2;P2;SDS_P1;SDS_P2;PMS_P1;PMS_P2;Temp;Humidity;BMP_temperature;BMP_pressure;BME280_temperature;BME280_humidity;BME280_pressure;Samples;Min_cycle;Max_cycle;Signal;HPM_P1;HPM_P2
2022/11/28 00:01:37;;;;;;;18.23;11.02;;;5.80;99.90;;;;;;6212636;23;20026;-83
2022/11/28 00:04:04;;;;;;;14.18;10.73;;;6.20;99.90;;;;;;6212885;23;20098;-81
2022/11/28 00:06:30;;;;;;;21.33;11.35;;;6.00;99.90;;;;;;6213915;23;20096;-79
2022/11/28 00:08:59;;;;;;;19.42;11.40;;;5.90;99.90;;;;;;6181945;23;20048;-82
2022/11/28 00:11:28;;;;;;;15.30;10.65;;;5.90;99.90;;;;;;6135925;23;20095;-81
2022/11/28 00:13:54;;;;;;;16.92;11.30;;;5.80;99.90;;;;;;6183766;23;20043;-83
2022/11/28 00:16:21;;;;;;;15.65;10.77;;;6.10;99.90;;;;;;6183051;23;20052;-79
2022/11/28 00:18:48;;;;;;;16.58;10.95;;;5.90;99.90;;;;;;6208101;23;20110;-81
2022/11/28 00:21:15;;;;;;;16.63;10.63;;;6.10;99.90;;;;;;6208717;23;20017;-80
2022/11/28 00:23:43;;;;;;;14.75;10.43;;;5.80;99.90;;;;;;6184247;23;20016;-80
2022/11/28 00:26:10;;;;;;;17.08;10.18;;;5.80;99.90;;;;;;6182432;23;20474;-81
2022/11/28 00:28:38;;;;;;;16.70;10.55;;;6.00;99.90;;;;;;6206598;23;20044;-81
2022/11/28 00:31:04;;;;;;;16.58;10.13;;;6.10;99.90;;;;;;6183991;23;20021;-82
2022/11/28 00:33:31;;;;;;;16.58;9.80;;;5.90;99.90;;;;;;6184362;23;20484;-80
2022/11/28 00:36:03;;;;;;;13.10;9.23;;;6.10;99.90;;;;;;6207359;23;20020;-80
2022/11/28 00:38:29;;;;;;;15.85;9.27;;;5.90;99.90;;;;;;6182464;23;20005;-79
2022/11/28 00:41:19;;;;;;;12.75;8.73;;;5.80;99.90;;;;;;6185498;23;20052;-82
2022/11/28 00:43:46;;;;;;;16.60;9.65;;;5.90;99.90;;;;;;6186793;23;20443;-80
2022/11/28 00:46:13;;;;;;;12.70;8.07;;;6.20;99.90;;;;;;6214460;23;20067;-79
2022/11/28 00:48:39;;;;;;;13.20;8.82;;;5.80;99.90;;;;;;6208828;23;20312;-79
2022/11/28 00:51:05;;;;;;;12.52;8.77;;;5.90;99.90;;;;;;6211124;23;20104;-80
2022/11/28 00:53:34;;;;;;;16.73;8.07;;;6.10;99.90;;;;;;6186793;23;20515;-83
2022/11/28 00:56:02;;;;;;;12.52;9.00;;;6.10;99.90;;;;;;6191614;23;20044;-79
2022/11/28 00:58:28;;;;;;;12.70;8.60;;;6.10;99.90;;;;;;6192526;23;20032;-81
2022/11/28 01:00:53;;;;;;;11.95;8.32;;;6.10;99.90;;;;;;6184388;23;20448;-82
2022/11/28 01:03:19;;;;;;;12.38;8.85;;;5.90;99.90;;;;;;6182146;23;20829;-82
2022/11/28 01:05:45;;;;;;;14.45;8.35;;;5.80;99.90;;;;;;6181704;23;20091;-78
2022/11/28 01:08:10;;;;;;;14.82;9.35;;;5.90;99.90;;;;;;6179833;23;20448;-82
2022/11/28 01:10:44;;;;;;;13.95;8.93;;;6.00;99.90;;;;;;6181554;23;20738;-80
2022/11/28 01:13:11;;;;;;;16.25;9.07;;;5.90;99.90;;;;;;6208237;23;20016;-79
2022/11/28 01:15:40;;;;;;;12.40;9.25;;;5.90;99.90;;;;;;6184276;23;20024;-80
2022/11/28 01:18:06;;;;;;;17.15;9.57;;;6.00;99.90;;;;;;6182344;23;20490;-82
2022/11/28 01:20:32;;;;;;;15.10;8.88;;;6.20;99.90;;;;;;6209025;23;20013;-79
2022/11/28 01:22:58;;;;;;;14.27;9.52;;;6.20;99.90;;;;;;6183511;23;20005;-81
2022/11/28 01:25:23;;;;;;;17.38;8.98;;;5.90;99.90;;;;;;6180978;23;20070;-83
2022/11/28 01:27:49;;;;;;;12.65;9.23;;;6.30;99.90;;;;;;6206879;23;20327;-82
2022/11/28 01:30:15;;;;;;;13.57;8.63;;;6.20;99.90;;;;;;6208081;23;20027;-82
2022/11/28 01:32:41;;;;;;;13.75;9.38;;;5.90;99.90;;;;;;6184017;23;20051;-82
2022/11/28 01:35:07;;;;;;;13.23;9.00;;;6.00;99.90;;;;;;6158644;23;20092;-80
2022/11/28 01:37:33;;;;;;;13.25;9.18;;;6.00;99.90;;;;;;6208635;23;20074;-81
2022/11/28 01:39:58;;;;;;;15.10;8.73;;;6.30;99.90;;;;;;6182709;23;20008;-82
2022/11/28 01:42:24;;;;;;;12.15;8.23;;;6.00;99.90;;;;;;6209380;23;20015;-85
2022/11/28 01:44:53;;;;;;;15.13;8.52;;;6.30;99.90;;;;;;6185096;23;20338;-83
2022/11/28 01:47:26;;;;;;;12.38;8.88;;;6.30;99.90;;;;;;6211184;23;20013;-84
2022/11/28 01:49:53;;;;;;;15.32;8.80;;;6.40;99.90;;;;;;6182886;23;20021;-80
2022/11/28 01:52:21;;;;;;;16.77;9.43;;;6.40;99.90;;;;;;6183103;23;20459;-81
2022/11/28 01:54:51;;;;;;;14.13;9.43;;;6.30;99.90;;;;;;6208979;23;20024;-79
2022/11/28 01:57:23;;;;;;;18.08;9.90;;;6.40;99.90;;;;;;6183854;23;20019;-80
2022/11/28 02:00:14;;;;;;;17.02;9.63;;;6.30;99.90;;;;;;6184386;23;20012;-81
2022/11/28 02:02:44;;;;;;;13.45;10.05;;;6.40;99.90;;;;;;6186303;23;20012;-81
2022/11/28 02:05:10;;;;;;;18.48;10.85;;;6.10;99.90;;;;;;6186409;23;20523;-82
2022/11/28 02:07:37;;;;;;;17.55;10.88;;;6.30;99.90;;;;;;6209552;23;20024;-83
2022/11/28 02:10:07;;;;;;;19.17;11.45;;;6.20;99.90;;;;;;6214959;23;20020;-85
2022/11/28 02:13:12;;;;;;;21.63;11.10;;;6.10;99.90;;;;;;6214163;23;20119;-82
2022/11/28 02:15:59;;;;;;;25.20;11.07;;;6.30;99.90;;;;;;6214887;23;20388;-83
2022/11/28 02:18:50;;;;;;;20.50;11.73;;;6.30;99.90;;;;;;6215416;22;20447;-84
2022/11/28 02:21:47;;;;;;;18.55;12.32;;;6.10;99.90;;;;;;6215982;23;20377;-81
2022/11/28 02:24:37;;;;;;;23.17;11.75;;;6.10;99.90;;;;;;6178468;23;20088;-80
2022/11/28 02:31:07;;;;;;;23.52;11.77;;;6.20;99.90;;;;;;6253534;23;20427;-81
2022/11/28 02:33:59;;;;;;;21.75;12.90;;;6.20;99.90;;;;;;6077371;23;20022;-84
2022/11/28 02:36:30;;;;;;;20.58;13.13;;;6.40;99.90;;;;;;5980210;24;20349;-81
2022/11/28 02:39:30;;;;;;;21.45;13.75;;;6.10;99.90;;;;;;5978906;24;20084;-79
2022/11/28 02:42:12;;;;;;;23.70;12.70;;;6.30;99.90;;;;;;5878239;24;20427;-84
2022/11/28 02:45:05;;;;;;;24.05;14.00;;;6.10;99.90;;;;;;5878153;24;20060;-79
2022/11/28 02:47:44;;;;;;;18.30;13.40;;;6.40;99.90;;;;;;5924457;24;20021;-86
2022/11/28 02:50:16;;;;;;;22.13;14.02;;;6.10;99.90;;;;;;5922542;24;20104;-79
2022/11/28 02:52:55;;;;;;;22.58;14.40;;;6.10;99.90;;;;;;5924513;24;20101;-81
2022/11/28 02:55:23;;;;;;;23.33;14.00;;;6.20;99.90;;;;;;5923925;24;20105;-83
2022/11/28 02:57:52;;;;;;;23.50;14.20;;;6.10;99.90;;;;;;5921230;24;20033;-84
2022/11/28 03:00:31;;;;;;;23.52;15.00;;;6.40;99.90;;;;;;5922421;24;20446;-80
2022/11/28 03:03:23;;;;;;;26.58;15.30;;;6.10;99.90;;;;;;5876548;23;20043;-83
2022/11/28 03:06:07;;;;;;;25.75;14.88;;;6.50;99.90;;;;;;5918826;24;20025;-82
2022/11/28 03:08:42;;;;;;;23.48;15.40;;;6.50;99.90;;;;;;5901002;24;20077;-79
2022/11/28 03:11:20;;;;;;;;;;;6.10;99.90;;;;;;5982275;23;20019;-85
2022/11/28 03:14:15;;;;;;;30.02;14.82;;;6.20;99.90;;;;;;6076192;23;19940;-81
2022/11/28 03:17:17;;;;;;;21.92;14.55;;;6.50;99.90;;;;;;6038303;23;20023;-82
2022/11/28 03:19:58;;;;;;;22.33;14.32;;;6.40;99.90;;;;;;6072517;23;20026;-83
2022/11/28 03:22:28;;;;;;;25.77;15.40;;;6.20;99.90;;;;;;6091387;23;20074;-86
2022/11/28 03:24:59;;;;;;;29.15;15.95;;;6.20;99.90;;;;;;6091530;23;20097;-80
2022/11/28 03:27:41;;;;;;;25.27;15.40;;;6.20;99.90;;;;;;6091576;23;20458;-82
2022/11/28 03:30:22;;;;;;;27.27;14.73;;;6.40;99.90;;;;;;6068135;23;20050;-81
2022/11/28 03:32:52;;;;;;;23.80;15.52;;;6.50;99.90;;;;;;6068989;23;20014;-82
2022/11/28 03:35:22;;;;;;;22.60;15.30;;;6.30;99.90;;;;;;6074798;23;20026;-78
2022/11/28 03:37:59;;;;;;;22.70;15.05;;;6.50;99.90;;;;;;6079229;23;20041;-79
2022/11/28 03:40:31;;;;;;;27.90;16.48;;;6.50;99.90;;;;;;6075877;23;20010;-83
2022/11/28 03:43:11;;;;;;;26.13;15.85;;;6.20;99.90;;;;;;6069245;23;20017;-83
2022/11/28 03:45:44;;;;;;;23.85;15.52;;;6.20;99.90;;;;;;6068410;23;20813;-83
2022/11/28 03:48:22;;;;;;;23.60;16.13;;;6.40;99.90;;;;;;6090764;23;20022;-82
2022/11/28 03:50:58;;;;;;;21.92;15.93;;;6.50;99.90;;;;;;6090608;23;20045;-85
2022/11/28 03:53:29;;;;;;;21.88;16.42;;;6.30;99.90;;;;;;6116817;23;20099;-81
2022/11/28 03:56:10;;;;;;;27.55;16.77;;;6.20;99.90;;;;;;6160263;23;20087;-81
2022/11/28 03:58:53;;;;;;;23.50;17.05;;;6.40;99.90;;;;;;6160775;23;20012;-83
2022/11/28 04:01:27;;;;;;;24.73;16.80;;;6.30;99.90;;;;;;6164034;23;20067;-84
2022/11/28 04:04:07;;;;;;;24.50;16.73;;;6.40;99.90;;;;;;6167807;23;20032;-82
2022/11/28 04:07:00;;;;;;;24.83;16.65;;;6.60;99.90;;;;;;6170079;23;20018;-79
2022/11/28 04:09:45;;;;;;;29.38;18.45;;;6.60;99.90;;;;;;6204656;23;20020;-82
2022/11/28 04:12:26;;;;;;;24.92;18.48;;;6.50;99.90;;;;;;6211613;23;20108;-83
2022/11/28 04:14:59;;;;;;;27.70;18.67;;;6.40;99.90;;;;;;6186670;23;20013;-83
2022/11/28 04:17:32;;;;;;;26.70;18.40;;;6.50;99.90;;;;;;6186267;23;20013;-84
2022/11/28 04:20:24;;;;;;;28.90;18.88;;;6.70;99.90;;;;;;6210018;23;20032;-83
2022/11/28 04:22:56;;;;;;;30.23;19.58;;;6.40;99.90;;;;;;6185127;23;20020;-83
2022/11/28 04:25:24;;;;;;;33.88;20.35;;;6.70;99.90;;;;;;6183143;23;20028;-80
2022/11/28 04:28:13;;;;;;;28.05;20.50;;;6.40;99.90;;;;;;6210095;23;20070;-83
2022/11/28 04:30:41;;;;;;;30.52;21.17;;;6.50;99.90;;;;;;6213195;23;20095;-82
2022/11/28 04:33:10;;;;;;;29.35;20.75;;;6.50;99.90;;;;;;6214653;23;20012;-78
2022/11/28 04:35:43;;;;;;;31.02;22.40;;;6.50;99.90;;;;;;6215764;23;20407;-79
2022/11/28 04:38:10;;;;;;;31.83;22.33;;;6.60;99.90;;;;;;6185623;23;20012;-83
2022/11/28 04:41:09;;;;;;;29.70;22.00;;;6.70;99.90;;;;;;6210481;23;20039;-83
2022/11/28 04:43:40;;;;;;;38.53;24.33;;;6.80;99.90;;;;;;6184098;23;20004;-82
2022/11/28 04:46:23;;;;;;;34.33;22.25;;;6.90;99.90;;;;;;6210989;23;20020;-83
2022/11/28 04:48:49;;;;;;;32.00;22.95;;;6.80;99.90;;;;;;6210666;23;20027;-81
2022/11/28 04:51:44;;;;;;;36.63;23.98;;;6.70;99.90;;;;;;6184064;23;20312;-83
2022/11/28 04:54:35;;;;;;;36.88;23.90;;;6.80;99.90;;;;;;6063882;23;20041;-84
2022/11/28 04:57:12;;;;;;;33.53;23.70;;;7.00;99.90;;;;;;6088961;23;20041;-82
2022/11/28 04:59:40;;;;;;;34.00;24.38;;;7.00;99.90;;;;;;6089700;23;20053;-83
2022/11/28 05:02:07;;;;;;;34.88;22.90;;;6.70;99.90;;;;;;6068146;23;20074;-81
2022/11/28 05:04:36;;;;;;;36.60;23.67;;;7.10;99.90;;;;;;6091756;23;20029;-81
2022/11/28 05:07:04;;;;;;;37.00;25.33;;;6.90;99.90;;;;;;6092878;23;20018;-81
2022/11/28 05:09:30;;;;;;;35.63;23.65;;;6.80;99.90;;;;;;6067532;23;20096;-80
2022/11/28 05:11:56;;;;;;;37.45;24.50;;;7.10;99.90;;;;;;6090368;23;20390;-80
2022/11/28 05:14:22;;;;;;;35.72;23.85;;;7.00;99.90;;;;;;6067570;23;20018;-83
2022/11/28 05:16:48;;;;;;;35.00;23.55;;;7.10;99.90;;;;;;6069138;23;20140;-84
2022/11/28 05:19:14;;;;;;;33.78;22.75;;;7.20;99.90;;;;;;6076500;23;20014;-85
2022/11/28 05:21:40;;;;;;;35.85;24.13;;;7.10;99.90;;;;;;6093542;23;20101;-79
2022/11/28 05:24:06;;;;;;;32.53;22.38;;;7.20;99.90;;;;;;6065874;23;20454;-81
2022/11/28 05:26:34;;;;;;;34.53;24.13;;;6.90;99.90;;;;;;6092160;23;20359;-82
2022/11/28 05:29:00;;;;;;;32.05;22.80;;;7.00;99.90;;;;;;6042612;23;20056;-82
2022/11/28 05:31:27;;;;;;;32.38;22.67;;;7.10;99.90;;;;;;6140778;23;20027;-82
2022/11/28 05:33:53;;;;;;;32.35;21.15;;;6.90;99.90;;;;;;6186747;23;20099;-81
2022/11/28 05:36:20;;;;;;;33.97;22.30;;;7.30;99.90;;;;;;6162518;23;20031;-82
2022/11/28 05:38:46;;;;;;;37.95;22.20;;;7.00;99.90;;;;;;6188568;23;20056;-80
2022/11/28 05:41:22;;;;;;;28.38;21.10;;;7.30;99.90;;;;;;6166682;23;20017;-78
2022/11/28 05:43:48;;;;;;;32.40;21.80;;;7.10;99.90;;;;;;6164836;23;20087;-83
2022/11/28 05:46:13;;;;;;;30.83;21.88;;;7.30;99.90;;;;;;6157336;23;20336;-82
2022/11/28 05:48:39;;;;;;;32.90;21.73;;;7.40;99.90;;;;;;6158352;23;20055;-84
2022/11/28 05:51:06;;;;;;;30.38;21.67;;;7.10;99.90;;;;;;6157766;23;20427;-79
2022/11/28 05:53:32;;;;;;;28.35;20.83;;;7.10;99.90;;;;;;6158149;23;20432;-83
2022/11/28 05:55:58;;;;;;;29.20;20.95;;;7.40;99.90;;;;;;6157700;23;20069;-82
2022/11/28 05:58:24;;;;;;;27.65;20.80;;;7.40;99.90;;;;;;6158759;23;20067;-80
2022/11/28 06:00:50;;;;;;;29.63;20.40;;;7.40;99.90;;;;;;6182960;23;20016;-81
2022/11/28 06:03:15;;;;;;;27.48;20.05;;;7.10;99.90;;;;;;6158666;23;20556;-83
2022/11/28 06:05:42;;;;;;;29.98;22.33;;;7.40;99.90;;;;;;6160118;23;20274;-80
2022/11/28 06:08:12;;;;;;;30.20;20.85;;;7.10;99.90;;;;;;6166042;23;20067;-81
2022/11/28 06:10:40;;;;;;;30.48;20.65;;;7.30;99.90;;;;;;6190624;23;20019;-83
2022/11/28 06:13:07;;;;;;;28.58;21.20;;;7.20;99.90;;;;;;6190622;23;20050;-82
2022/11/28 06:15:33;;;;;;;30.73;21.15;;;7.40;99.90;;;;;;6190515;23;20062;-80
2022/11/28 06:17:58;;;;;;;28.92;20.50;;;7.20;99.90;;;;;;6215839;23;20095;-82
2022/11/28 06:20:24;;;;;;;32.92;20.33;;;7.20;99.90;;;;;;6165191;23;20022;-80
2022/11/28 06:22:50;;;;;;;33.22;21.80;;;7.30;99.90;;;;;;6193976;23;20016;-82
2022/11/28 06:25:16;;;;;;;31.35;21.33;;;7.50;99.90;;;;;;6217534;23;20470;-85
2022/11/28 06:27:42;;;;;;;32.75;21.77;;;7.20;99.90;;;;;;6193451;23;20012;-84
2022/11/28 06:30:08;;;;;;;33.28;20.92;;;7.30;99.90;;;;;;6193960;23;20511;-81
2022/11/28 06:32:34;;;;;;;29.02;20.80;;;7.20;99.90;;;;;;6194620;23;20052;-79
2022/11/28 06:34:59;;;;;;;30.17;20.88;;;7.20;99.90;;;;;;6215648;23;20023;-81
2022/11/28 06:37:27;;;;;;;33.67;20.50;;;7.50;99.90;;;;;;6190628;23;20409;-82
2022/11/28 06:39:52;;;;;;;30.65;21.38;;;7.40;99.90;;;;;;6213425;23;20050;-85
2022/11/28 06:42:18;;;;;;;31.52;19.75;;;7.60;99.90;;;;;;6190571;23;20012;-83
2022/11/28 06:44:44;;;;;;;31.58;20.90;;;7.60;99.90;;;;;;6190251;23;20016;-82
2022/11/28 06:47:10;;;;;;;34.85;20.20;;;7.30;99.90;;;;;;6190771;23;20074;-82
2022/11/28 06:49:35;;;;;;;29.95;18.95;;;7.50;99.90;;;;;;6191204;23;20095;-81
2022/11/28 06:52:01;;;;;;;26.98;18.88;;;7.40;99.90;;;;;;6190135;23;20099;-81
2022/11/28 06:54:27;;;;;;;28.40;18.30;;;7.30;99.90;;;;;;6214246;23;20016;-78
2022/11/28 06:56:53;;;;;;;25.05;17.52;;;7.50;99.90;;;;;;6214889;23;20101;-79
2022/11/28 06:59:18;;;;;;;29.67;18.15;;;7.60;99.90;;;;;;6217705;23;20102;-80
2022/11/28 07:01:44;;;;;;;26.45;17.92;;;7.60;99.90;;;;;;6217712;23;20097;-82
2022/11/28 07:04:10;;;;;;;31.88;16.83;;;7.60;99.90;;;;;;6193196;23;20012;-80
2022/11/28 07:06:37;;;;;;;29.05;16.92;;;7.30;99.90;;;;;;6218283;23;20016;-81
2022/11/28 07:09:02;;;;;;;24.17;16.23;;;7.60;99.90;;;;;;6188808;23;20021;-85
2022/11/28 07:11:30;;;;;;;27.52;16.17;;;7.60;99.90;;;;;;6191424;23;20021;-81
2022/11/28 07:13:57;;;;;;;20.30;15.55;;;7.60;99.90;;;;;;6221677;23;20067;-81
2022/11/28 07:16:30;;;;;;;25.48;15.35;;;7.50;99.90;;;;;;6194390;23;20020;-81
2022/11/28 07:18:57;;;;;;;22.77;14.30;;;7.70;99.90;;;;;;6214210;23;20071;-81
2022/11/28 07:21:23;;;;;;;24.67;15.93;;;7.60;99.90;;;;;;6188169;23;20023;-79
2022/11/28 07:23:49;;;;;;;24.77;16.30;;;7.70;99.90;;;;;;6212569;23;20100;-82
2022/11/28 07:26:17;;;;;;;21.60;14.70;;;7.70;99.90;;;;;;6186801;23;20088;-82
2022/11/28 07:28:45;;;;;;;22.40;14.70;;;7.40;99.90;;;;;;6210159;23;20423;-81
2022/11/28 07:31:13;;;;;;;19.75;14.30;;;7.70;99.90;;;;;;6212077;23;20024;-80
2022/11/28 07:33:41;;;;;;;21.77;14.25;;;7.80;99.90;;;;;;6184852;23;20658;-82
2022/11/28 07:36:11;;;;;;;22.25;15.25;;;7.60;99.90;;;;;;6185634;23;20123;-85
2022/11/28 07:38:37;;;;;;;22.55;15.13;;;7.50;99.90;;;;;;6208930;23;20012;-84
2022/11/28 07:41:08;;;;;;;21.33;14.20;;;7.40;99.90;;;;;;6184899;23;20044;-80
2022/11/28 07:43:34;;;;;;;24.02;14.48;;;7.40;99.90;;;;;;6184714;23;20411;-82
2022/11/28 07:46:03;;;;;;;22.17;14.32;;;7.50;99.90;;;;;;6208800;23;20297;-85
2022/11/28 07:48:29;;;;;;;22.23;14.85;;;7.70;99.90;;;;;;6211073;23;20458;-82
2022/11/28 07:50:55;;;;;;;21.90;15.45;;;7.60;99.90;;;;;;6184879;23;20090;-82
2022/11/28 07:53:21;;;;;;;23.02;15.35;;;7.60;99.90;;;;;;6183252;23;20056;-82
2022/11/28 07:55:46;;;;;;;24.45;16.08;;;7.50;99.90;;;;;;6211060;23;20020;-83
2022/11/28 07:58:12;;;;;;;22.27;15.65;;;7.50;99.90;;;;;;6184546;23;20016;-83
2022/11/28 08:00:38;;;;;;;21.67;14.98;;;7.50;99.90;;;;;;6184124;23;20092;-82
2022/11/28 08:03:04;;;;;;;21.60;15.20;;;7.70;99.90;;;;;;6209671;23;20019;-85
2022/11/28 08:05:30;;;;;;;23.50;16.17;;;7.40;99.90;;;;;;6184404;23;20459;-84
2022/11/28 08:07:55;;;;;;;26.40;16.58;;;7.50;99.90;;;;;;6189474;23;20028;-82
2022/11/28 08:10:24;;;;;;;23.77;16.38;;;7.40;99.90;;;;;;6188315;23;20012;-82
2022/11/28 08:13:08;;;;;;;23.83;16.50;;;7.50;99.90;;;;;;6240603;23;20089;-82
2022/11/28 08:15:36;;;;;;;25.85;16.52;;;7.40;99.90;;;;;;6192158;23;20019;-81
2022/11/28 08:18:02;;;;;;;27.98;16.75;;;7.60;99.90;;;;;;6216559;23;20019;-83
2022/11/28 08:20:28;;;;;;;26.65;16.52;;;7.50;99.90;;;;;;6216691;23;20008;-85
2022/11/28 08:22:53;;;;;;;26.42;17.27;;;7.50;99.90;;;;;;6217665;23;20048;-82
2022/11/28 08:25:19;;;;;;;26.65;17.60;;;7.50;99.90;;;;;;6217564;23;20355;-84
2022/11/28 08:27:46;;;;;;;28.45;17.70;;;7.70;99.90;;;;;;6198448;23;20015;-82
2022/11/28 08:30:12;;;;;;;27.05;16.92;;;7.80;99.90;;;;;;6218513;23;20048;-83
2022/11/28 08:32:38;;;;;;;26.63;17.40;;;7.70;99.90;;;;;;6216622;23;20087;-84
2022/11/28 08:35:04;;;;;;;29.05;18.08;;;7.60;99.90;;;;;;6218439;23;20051;-81
2022/11/28 08:37:29;;;;;;;25.52;17.08;;;7.60;99.90;;;;;;6190907;23;20307;-85
2022/11/28 08:39:55;;;;;;;24.15;17.10;;;7.50;99.90;;;;;;6218316;23;20012;-83
2022/11/28 08:42:21;;;;;;;26.40;16.75;;;7.80;99.90;;;;;;6194103;23;20091;-82
2022/11/28 08:44:46;;;;;;;24.65;16.08;;;7.70;99.90;;;;;;6227925;23;20027;-80
2022/11/28 08:47:12;;;;;;;24.73;16.33;;;7.60;99.90;;;;;;6201072;23;20081;-82
2022/11/28 08:49:38;;;;;;;25.33;15.50;;;7.50;99.90;;;;;;6218556;23;20016;-82
2022/11/28 08:52:04;;;;;;;26.45;15.40;;;7.50;99.90;;;;;;6193302;23;20016;-82
2022/11/28 08:54:30;;;;;;;22.80;15.00;;;7.60;99.90;;;;;;6197779;23;20016;-83
2022/11/28 09:01:18;;;;;;;21.40;13.70;;;7.60;99.90;;;;;;6248683;23;20008;-84
2022/11/28 09:03:47;;;;;;;19.42;13.55;;;7.80;99.90;;;;;;6193895;23;20012;-82
2022/11/28 09:06:15;;;;;;;21.40;11.90;;;7.60;99.90;;;;;;6221334;23;20024;-83
2022/11/28 09:08:42;;;;;;;16.73;12.85;;;7.60;99.90;;;;;;6207187;23;20099;-84
2022/11/28 09:11:08;;;;;;;22.05;13.73;;;7.90;99.90;;;;;;6191355;23;20024;-81
2022/11/28 09:13:35;;;;;;;18.10;12.48;;;7.70;99.90;;;;;;6166250;23;20039;-80
2022/11/28 09:16:02;;;;;;;17.05;11.65;;;7.90;99.90;;;;;;6186860;23;20742;-83
2022/11/28 09:18:28;;;;;;;18.67;12.68;;;7.80;99.90;;;;;;6186334;23;20071;-82
2022/11/28 09:21:01;;;;;;;15.52;11.73;;;7.80;99.90;;;;;;6183921;23;20021;-83
2022/11/28 09:23:28;;;;;;;20.23;13.27;;;7.90;99.90;;;;;;6156141;23;20016;-82
2022/11/28 09:25:54;;;;;;;15.80;12.10;;;7.80;99.90;;;;;;6157054;23;20436;-84
2022/11/28 09:28:20;;;;;;;15.32;11.20;;;7.70;99.90;;;;;;6158166;23;20734;-81
2022/11/28 09:30:46;;;;;;;13.98;10.65;;;7.90;99.90;;;;;;6191745;23;20012;-84
2022/11/28 09:33:12;;;;;;;14.95;10.80;;;7.90;99.90;;;;;;6187398;23;20023;-86
2022/11/28 09:35:39;;;;;;;12.95;10.60;;;7.60;99.90;;;;;;6161702;23;20016;-82
2022/11/28 09:38:05;;;;;;;16.20;10.13;;;8.00;99.90;;;;;;6158732;23;20451;-81
2022/11/28 09:40:36;;;;;;;13.38;10.35;;;8.10;99.90;;;;;;6184946;23;20009;-84
2022/11/28 09:43:03;;;;;;;12.27;9.50;;;7.80;99.90;;;;;;6161613;23;20020;-85
2022/11/28 09:45:30;;;;;;;13.10;9.68;;;7.90;99.90;;;;;;6163674;23;20021;-87
2022/11/28 09:48:22;;;;;;;11.70;8.77;;;7.90;99.90;;;;;;6163585;23;20362;-85
2022/11/28 09:50:52;;;;;;;12.30;8.55;;;8.10;99.90;;;;;;6162226;23;20143;-87
2022/11/28 09:53:44;;;;;;;13.88;9.05;;;8.10;99.90;;;;;;6188401;23;20098;-87
2022/11/28 09:56:20;;;;;;;12.48;8.77;;;7.90;99.90;;;;;;6162509;23;20104;-83
2022/11/28 09:58:54;;;;;;;10.23;8.15;;;7.80;99.90;;;;;;6187789;23;20020;-84
2022/11/28 10:01:25;;;;;;;11.18;8.57;;;7.90;99.90;;;;;;6187191;23;20020;-83
2022/11/28 10:04:09;;;;;;;8.52;7.35;;;8.10;99.90;;;;;;6164816;23;20498;-81
2022/11/28 10:07:04;;;;;;;10.10;7.93;;;8.20;99.90;;;;;;6164510;23;20016;-82
2022/11/28 10:09:38;;;;;;;10.18;7.90;;;8.10;99.90;;;;;;6179146;23;20024;-82
2022/11/28 10:16:12;;;;;;;10.88;7.97;;;8.10;99.90;;;;;;6221481;23;20046;-81
2022/11/28 10:18:57;;;;;;;10.05;7.45;;;8.00;99.90;;;;;;6197552;23;20013;-80
2022/11/28 10:21:26;;;;;;;11.55;8.02;;;8.20;99.90;;;;;;6192508;23;20296;-83
2022/11/28 10:24:09;;;;;;;10.55;7.65;;;8.10;99.90;;;;;;6216307;23;20008;-78
2022/11/28 10:26:44;;;;;;;10.95;8.25;;;8.20;99.90;;;;;;6189323;23;20024;-83
2022/11/28 10:29:21;;;;;;;11.18;8.13;;;8.00;99.90;;;;;;6213887;23;20016;-83
2022/11/28 10:31:50;;;;;;;9.32;7.63;;;8.20;99.90;;;;;;6214065;23;20088;-86
2022/11/28 10:34:16;;;;;;;11.00;7.75;;;8.20;99.90;;;;;;6213956;23;20009;-83
2022/11/28 10:36:45;;;;;;;11.82;8.30;;;8.00;99.90;;;;;;6188876;23;20309;-82
2022/11/28 10:39:12;;;;;;;11.00;8.15;;;8.20;99.90;;;;;;6213237;23;20016;-82
2022/11/28 10:45:24;;;;;;;10.93;8.15;;;8.30;99.90;;;;;;6213998;23;20048;-83
2022/11/28 10:47:52;;;;;;;12.55;8.05;;;8.40;99.90;;;;;;6215098;23;20027;-83
2022/11/28 10:50:56;;;;;;;11.35;7.97;;;8.40;99.90;;;;;;6215458;23;20044;-83
2022/11/28 10:53:27;;;;;;;13.13;8.13;;;8.40;99.90;;;;;;6190043;23;20013;-83
2022/11/28 10:56:12;;;;;;;11.48;8.13;;;8.20;99.90;;;;;;6214941;23;20012;-81
2022/11/28 10:58:38;;;;;;;11.95;8.15;;;8.20;99.90;;;;;;6188502;23;20351;-80
2022/11/28 11:01:04;;;;;;;11.30;8.38;;;8.40;99.90;;;;;;6212891;23;20075;-85
2022/11/28 11:03:32;;;;;;;9.90;7.70;;;8.30;99.90;;;;;;6188504;23;20013;-82
2022/11/28 11:05:59;;;;;;;11.50;7.15;;;8.20;99.90;;;;;;6163355;23;20470;-84
2022/11/28 11:08:27;;;;;;;8.95;7.40;;;8.30;99.90;;;;;;6212572;23;20086;-84
2022/11/28 11:11:15;;;;;;;10.88;7.75;;;8.50;99.90;;;;;;6188791;23;20031;-84
2022/11/28 11:14:01;;;;;;;13.13;7.55;;;8.40;99.90;;;;;;6188325;23;20019;-84
2022/11/28 11:16:55;;;;;;;10.85;7.60;;;8.30;99.90;;;;;;6213793;23;20017;-82
2022/11/28 11:19:28;;;;;;;8.73;7.32;;;8.50;99.90;;;;;;6188862;23;20008;-84
2022/11/28 11:22:24;;;;;;;10.63;7.30;;;8.60;99.90;;;;;;6218145;23;20075;-82
2022/11/28 11:25:15;;;;;;;10.85;7.00;;;8.40;99.90;;;;;;6215267;23;20051;-82
2022/11/28 11:27:53;;;;;;;11.75;6.57;;;8.70;99.90;;;;;;6190187;23;20013;-82
2022/11/28 11:30:42;;;;;;;13.60;7.35;;;8.70;99.90;;;;;;6214296;23;20455;-83
2022/11/28 11:33:16;;;;;;;11.10;7.15;;;8.80;99.90;;;;;;6214809;23;20048;-83
2022/11/28 11:35:48;;;;;;;12.73;7.38;;;8.50;99.90;;;;;;6215106;23;20019;-84
2022/11/28 11:38:20;;;;;;;9.32;7.22;;;8.60;99.90;;;;;;6191825;23;20016;-86
2022/11/28 11:40:47;;;;;;;12.20;7.60;;;8.60;99.90;;;;;;6218596;23;20008;-81
2022/11/28 11:43:31;;;;;;;11.23;7.00;;;8.70;99.90;;;;;;6192881;23;20154;-81
2022/11/28 11:46:13;;;;;;;12.77;7.40;;;8.70;99.90;;;;;;6215730;23;20012;-83
2022/11/28 11:48:44;;;;;;;11.60;7.03;;;8.80;99.90;;;;;;6197309;23;20047;-83
2022/11/28 11:51:30;;;;;;;12.40;7.15;;;8.90;99.90;;;;;;6218134;23;20016;-83
2022/11/28 11:54:03;;;;;;;10.10;7.18;;;9.00;99.90;;;;;;6223833;23;20024;-79
2022/11/28 11:56:36;;;;;;;13.73;7.88;;;8.80;99.90;;;;;;6194615;23;20103;-81
2022/11/28 11:59:09;;;;;;;10.93;7.70;;;9.00;99.90;;;;;;6187765;23;20147;-82
2022/11/28 12:01:39;;;;;;;13.68;7.85;;;9.00;99.90;;;;;;6212846;23;20092;-81
2022/11/28 12:04:11;;;;;;;12.30;7.63;;;9.10;99.90;;;;;;6214555;23;20206;-84
2022/11/28 12:06:40;;;;;;;11.63;8.05;;;8.80;99.90;;;;;;6213180;23;20023;-83
2022/11/28 12:09:37;;;;;;;12.63;7.65;;;8.80;99.90;;;;;;6212417;23;20084;-81
2022/11/28 12:12:22;;;;;;;10.65;7.70;;;8.80;99.90;;;;;;6213046;23;20023;-86
2022/11/28 12:14:49;;;;;;;11.98;7.68;;;9.00;99.90;;;;;;6212702;23;20092;-81
2022/11/28 12:17:34;;;;;;;10.43;7.47;;;9.10;99.90;;;;;;6188674;23;20452;-80
2022/11/28 12:20:18;;;;;;;9.82;7.03;;;9.00;99.90;;;;;;6188949;23;20013;-81
2022/11/28 12:23:04;;;;;;;11.55;7.45;;;8.90;99.90;;;;;;6196904;23;20060;-79
2022/11/28 12:25:56;;;;;;;9.38;7.47;;;8.90;99.90;;;;;;6217352;23;20020;-82
2022/11/28 12:28:42;;;;;;;11.23;7.35;;;8.90;99.90;;;;;;6212556;23;20023;-82
2022/11/28 12:31:34;;;;;;;10.73;7.78;;;9.20;99.90;;;;;;6187250;23;20021;-84
2022/11/28 12:34:29;;;;;;;10.80;7.95;;;9.30;99.90;;;;;;6187775;23;20024;-81
2022/11/28 12:37:20;;;;;;;8.88;7.25;;;9.10;99.90;;;;;;6187819;23;20027;-82
2022/11/28 12:40:10;;;;;;;12.82;8.27;;;9.30;99.90;;;;;;6187060;23;20020;-84
2022/11/28 12:42:51;;;;;;;10.77;7.88;;;9.10;99.90;;;;;;6212775;23;20460;-84
2022/11/28 12:45:49;;;;;;;10.68;8.00;;;9.00;99.90;;;;;;6213449;23;20143;-81
2022/11/28 12:48:49;;;;;;;11.98;8.32;;;8.90;99.90;;;;;;6213396;23;20012;-79
2022/11/28 12:51:41;;;;;;;9.80;7.53;;;9.30;99.90;;;;;;6216775;23;20118;-84
2022/11/28 12:54:50;;;;;;;9.48;7.30;;;9.20;99.90;;;;;;6190297;23;20481;-82
2022/11/28 12:57:21;;;;;;;8.82;6.93;;;9.20;99.90;;;;;;6069256;23;20033;-82
2022/11/28 13:00:03;;;;;;;10.50;7.65;;;9.20;99.90;;;;;;6092512;23;20026;-81
2022/11/28 13:02:46;;;;;;;8.60;7.65;;;9.00;99.90;;;;;;6068231;23;20454;-82
2022/11/28 13:05:17;;;;;;;9.65;7.30;;;8.90;99.90;;;;;;6068428;23;20310;-82
2022/11/28 13:08:16;;;;;;;10.55;8.43;;;9.00;99.90;;;;;;6068019;23;20066;-83
2022/11/28 13:11:07;;;;;;;10.93;7.55;;;8.90;99.90;;;;;;6068598;23;20426;-84
2022/11/28 13:13:45;;;;;;;8.00;6.97;;;8.80;99.90;;;;;;6068064;23;20076;-81
2022/11/28 13:16:34;;;;;;;9.30;7.30;;;9.00;99.90;;;;;;6092102;23;20015;-87
2022/11/28 13:19:34;;;;;;;10.25;7.75;;;8.90;99.90;;;;;;6091915;23;20101;-83
2022/11/28 13:22:22;;;;;;;10.52;7.50;;;9.00;99.90;;;;;;6068761;23;20129;-82
2022/11/28 13:25:09;;;;;;;10.82;7.40;;;9.10;99.90;;;;;;6093789;23;20018;-84
2022/11/28 13:28:12;;;;;;;10.10;7.65;;;8.90;99.90;;;;;;6075752;23;20018;-83